Time;durP1;ratioP1;P1;durP2;ratioP2;P2;SDS_P1;SDS_P2;PMS_P1;PMS_P2;Temp;Humidity;BMP_temperature;BMP_pressure;BME280_temperature;BME280_humidity;BME280_pressure;Samples;Min_cycle;Max_cycle;Signal;HPM_P1;HPM_P2
2022/03/09 00:01:35;;;;;;;113.18;62.33;;;;;;;;;;5147264;27;20022;-71
2022/03/09 00:04:00;;;;;;;128.63;70.88;;;;;;;;;;5147388;27;20101;-71
2022/03/09 00:06:26;;;;;;;124.28;62.47;;;;;;;;;;5147629;27;20159;-71
2022/03/09 00:08:51;;;;;;;113.68;57.88;;;;;;;;;;5147527;27;20097;-71
2022/03/09 00:11:17;;;;;;;85.25;46.58;;;;;;;;;;5147305;27;20026;-71
2022/03/09 00:13:42;;;;;;;86.53;51.65;;;;;;;;;;5147698;27;20073;-70
2022/03/09 00:16:08;;;;;;;100.95;58.40;;;;;;;;;;5129501;27;20030;-70
2022/03/09 00:18:33;;;;;;;86.93;50.95;;;;;;;;;;5147208;27;20050;-71
2022/03/09 00:20:58;;;;;;;84.60;49.78;;;;;;;;;;5147353;27;20155;-71
2022/03/09 00:23:24;;;;;;;86.20;48.40;;;;;;;;;;5147234;27;20083;-71
2022/03/09 00:25:49;;;;;;;65.30;41.40;;;;;;;;;;5145027;27;20027;-71
2022/03/09 00:28:15;;;;;;;82.20;48.13;;;;;;;;;;5142671;27;20015;-71
2022/03/09 00:30:40;;;;;;;75.22;45.55;;;;;;;;;;5147567;27;20027;-72
2022/03/09 00:33:05;;;;;;;88.93;53.92;;;;;;;;;;5146926;27;20023;-72
2022/03/09 00:35:31;;;;;;;79.78;44.85;;;;;;;;;;5146601;27;20029;-72
2022/03/09 00:37:56;;;;;;;81.78;45.50;;;;;;;;;;5147007;27;20023;-71
2022/03/09 00:40:22;;;;;;;85.65;52.45;;;;;;;;;;5147844;27;20382;-71
2022/03/09 00:42:47;;;;;;;72.65;43.92;;;;;;;;;;5143678;27;20040;-70
2022/03/09 00:45:13;;;;;;;97.45;56.00;;;;;;;;;;5143305;27;20337;-71
2022/03/09 00:47:38;;;;;;;65.25;38.10;;;;;;;;;;5146729;27;20421;-70
2022/03/09 00:50:04;;;;;;;141.45;81.95;;;;;;;;;;5146397;27;20140;-71
2022/03/09 00:52:30;;;;;;;84.15;47.85;;;;;;;;;;5146879;27;20022;-71
2022/03/09 00:54:55;;;;;;;95.57;52.97;;;;;;;;;;5146829;27;20644;-70
2022/03/09 00:57:21;;;;;;;64.32;38.13;;;;;;;;;;5146344;27;20732;-71
2022/03/09 00:59:46;;;;;;;54.85;33.47;;;;;;;;;;5146731;27;20050;-71
2022/03/09 01:02:11;;;;;;;60.90;36.75;;;;;;;;;;5146284;27;20022;-71
2022/03/09 01:04:37;;;;;;;72.38;41.13;;;;;;;;;;5146325;27;20027;-71
2022/03/09 01:07:03;;;;;;;63.88;37.13;;;;;;;;;;5137852;27;20030;-71
2022/03/09 01:09:28;;;;;;;59.55;34.88;;;;;;;;;;5139137;27;20444;-71
2022/03/09 01:11:54;;;;;;;60.33;38.38;;;;;;;;;;5133052;27;20025;-71
2022/03/09 01:14:19;;;;;;;56.15;34.60;;;;;;;;;;5125237;27;20326;-71
2022/03/09 01:16:45;;;;;;;61.05;36.03;;;;;;;;;;5125456;27;20043;-71
2022/03/09 01:19:10;;;;;;;57.80;38.45;;;;;;;;;;5125803;27;21179;-71
2022/03/09 01:21:35;;;;;;;67.45;41.67;;;;;;;;;;5124718;27;20030;-71
2022/03/09 01:24:01;;;;;;;60.78;37.25;;;;;;;;;;5125420;27;20346;-71
2022/03/09 01:26:26;;;;;;;84.45;43.33;;;;;;;;;;5125105;27;20030;-71
2022/03/09 01:28:52;;;;;;;99.18;54.67;;;;;;;;;;5125614;27;20034;-71
2022/03/09 01:31:17;;;;;;;71.45;40.90;;;;;;;;;;5125315;27;20022;-71
2022/03/09 01:33:43;;;;;;;69.10;37.65;;;;;;;;;;5125241;27;20451;-72
2022/03/09 01:36:08;;;;;;;58.95;34.97;;;;;;;;;;5124825;27;20078;-71
2022/03/09 01:38:33;;;;;;;78.88;44.95;;;;;;;;;;5125227;27;20365;-71
2022/03/09 01:40:59;;;;;;;79.07;45.58;;;;;;;;;;5124987;27;20111;-71
2022/03/09 01:43:24;;;;;;;110.20;56.67;;;;;;;;;;5125119;27;20037;-71
2022/03/09 01:45:49;;;;;;;105.47;54.78;;;;;;;;;;5125088;27;20341;-71
2022/03/09 01:48:15;;;;;;;108.25;62.15;;;;;;;;;;5124710;27;20036;-71
2022/03/09 01:50:41;;;;;;;84.22;48.20;;;;;;;;;;5124342;27;20038;-71
2022/03/09 01:53:06;;;;;;;64.00;35.42;;;;;;;;;;5124971;27;20027;-71
2022/03/09 01:55:31;;;;;;;55.20;32.25;;;;;;;;;;5125110;27;20034;-71
2022/03/09 01:57:57;;;;;;;49.78;31.13;;;;;;;;;;5124654;27;20030;-71
2022/03/09 02:00:22;;;;;;;56.35;32.75;;;;;;;;;;5124557;27;20346;-71
2022/03/09 02:02:48;;;;;;;85.78;44.33;;;;;;;;;;5125333;27;20027;-71
2022/03/09 02:05:15;;;;;;;104.75;55.17;;;;;;;;;;5124591;27;20553;-72
2022/03/09 02:10:24;;;;;;;105.72;54.90;;;;;;;;;;5145243;27;20038;-71
2022/03/09 02:12:50;;;;;;;96.70;55.00;;;;;;;;;;5144591;27;20392;-70
2022/03/09 02:15:15;;;;;;;94.68;54.42;;;;;;;;;;5141450;27;20102;-71
2022/03/09 02:17:41;;;;;;;96.88;57.08;;;;;;;;;;5137721;27;20026;-69
2022/03/09 02:20:06;;;;;;;98.35;56.38;;;;;;;;;;5137716;27;20103;-70
2022/03/09 02:22:33;;;;;;;100.32;58.35;;;;;;;;;;5139006;27;20034;-70
2022/03/09 02:24:59;;;;;;;85.00;47.47;;;;;;;;;;5137015;27;20383;-70
2022/03/09 02:27:24;;;;;;;84.60;47.70;;;;;;;;;;5136701;27;20079;-70
2022/03/09 02:29:50;;;;;;;105.10;54.75;;;;;;;;;;5143320;27;20033;-70
2022/03/09 02:32:16;;;;;;;117.10;64.22;;;;;;;;;;5138097;27;20025;-70
2022/03/09 02:34:41;;;;;;;111.22;59.33;;;;;;;;;;5137987;27;20019;-70
2022/03/09 02:37:07;;;;;;;89.70;47.45;;;;;;;;;;5141585;27;20033;-70
2022/03/09 02:39:32;;;;;;;66.03;39.80;;;;;;;;;;5141481;27;20724;-70
2022/03/09 02:41:58;;;;;;;79.68;44.05;;;;;;;;;;5146127;27;20026;-69
2022/03/09 02:44:23;;;;;;;83.85;47.47;;;;;;;;;;5149460;27;20027;-71
2022/03/09 02:46:49;;;;;;;121.68;66.70;;;;;;;;;;5149333;27;20030;-71
2022/03/09 02:49:14;;;;;;;137.07;73.00;;;;;;;;;;5148587;27;20022;-71
2022/03/09 02:51:39;;;;;;;97.47;53.08;;;;;;;;;;5144966;27;20027;-71
2022/03/09 02:54:05;;;;;;;81.53;46.50;;;;;;;;;;5146150;27;20118;-71
2022/03/09 02:56:31;;;;;;;70.15;39.67;;;;;;;;;;5142708;27;20015;-71
2022/03/09 02:58:56;;;;;;;79.07;42.65;;;;;;;;;;5148465;27;20445;-71
2022/03/09 03:01:21;;;;;;;129.55;67.05;;;;;;;;;;5149273;27;20037;-71
2022/03/09 03:03:47;;;;;;;162.95;82.45;;;;;;;;;;5148625;27;20453;-71
2022/03/09 03:06:13;;;;;;;121.65;62.90;;;;;;;;;;5148154;27;20018;-71
2022/03/09 03:08:38;;;;;;;117.20;60.13;;;;;;;;;;5149129;27;20030;-71
2022/03/09 03:11:08;;;;;;;92.32;50.58;;;;;;;;;;5146189;27;20353;-73
2022/03/09 03:13:34;;;;;;;85.85;49.13;;;;;;;;;;5144209;27;20078;-71
2022/03/09 03:15:59;;;;;;;224.02;93.63;;;;;;;;;;5148866;27;20085;-72
2022/03/09 03:18:24;;;;;;;184.25;78.55;;;;;;;;;;5148792;27;20061;-73
2022/03/09 03:20:54;;;;;;;152.30;67.75;;;;;;;;;;5148598;27;20019;-72
2022/03/09 03:23:20;;;;;;;160.93;71.57;;;;;;;;;;5148550;27;20026;-73
2022/03/09 03:25:45;;;;;;;142.23;66.35;;;;;;;;;;5148273;27;20026;-73
2022/03/09 03:28:11;;;;;;;118.63;60.05;;;;;;;;;;5129643;27;20019;-71
2022/03/09 03:30:36;;;;;;;120.28;66.43;;;;;;;;;;5148044;27;20129;-72
2022/03/09 03:33:01;;;;;;;134.25;69.88;;;;;;;;;;5141871;27;20119;-71
2022/03/09 03:35:27;;;;;;;135.25;64.25;;;;;;;;;;5127428;27;20425;-71
2022/03/09 03:37:52;;;;;;;115.40;59.47;;;;;;;;;;5144099;27;20025;-71
2022/03/09 03:40:17;;;;;;;153.93;75.47;;;;;;;;;;5148160;27;20341;-71
2022/03/09 03:42:43;;;;;;;130.45;61.30;;;;;;;;;;5147765;27;20031;-71
2022/03/09 03:45:08;;;;;;;121.55;60.88;;;;;;;;;;5146564;27;20340;-71
2022/03/09 03:47:33;;;;;;;114.20;56.20;;;;;;;;;;5142364;27;20050;-71
2022/03/09 03:49:59;;;;;;;105.80;51.75;;;;;;;;;;5148412;27;20026;-71
2022/03/09 03:52:24;;;;;;;105.50;51.92;;;;;;;;;;5147512;27;20041;-71
2022/03/09 03:54:49;;;;;;;111.78;55.03;;;;;;;;;;5147921;27;20034;-71
2022/03/09 03:57:15;;;;;;;108.43;53.70;;;;;;;;;;5147883;27;20029;-72
2022/03/09 03:59:40;;;;;;;108.93;52.85;;;;;;;;;;5147241;27;20037;-70
2022/03/09 04:02:05;;;;;;;119.90;59.72;;;;;;;;;;5147457;27;20023;-71
2022/03/09 04:04:31;;;;;;;117.28;56.60;;;;;;;;;;5127531;27;20065;-71
2022/03/09 04:06:56;;;;;;;113.43;59.08;;;;;;;;;;5143086;27;20133;-72
2022/03/09 04:09:22;;;;;;;117.45;60.20;;;;;;;;;;5141542;27;20056;-71
2022/03/09 04:11:47;;;;;;;110.10;54.42;;;;;;;;;;5141155;27;20025;-71
2022/03/09 04:14:12;;;;;;;98.60;49.53;;;;;;;;;;5146991;27;20031;-71
2022/03/09 04:16:38;;;;;;;92.40;47.65;;;;;;;;;;5147628;27;20030;-72
2022/03/09 04:19:03;;;;;;;95.90;46.45;;;;;;;;;;5147478;27;20075;-71
2022/03/09 04:21:29;;;;;;;89.55;44.55;;;;;;;;;;5147292;27;20387;-71
2022/03/09 04:23:54;;;;;;;86.53;43.47;;;;;;;;;;5147762;27;20058;-71
2022/03/09 04:26:19;;;;;;;90.38;46.00;;;;;;;;;;5147475;27;20105;-71
2022/03/09 04:28:45;;;;;;;93.93;48.90;;;;;;;;;;5142034;27;20022;-71
2022/03/09 04:31:10;;;;;;;65.20;36.05;;;;;;;;;;5139459;27;20057;-71
2022/03/09 04:33:35;;;;;;;56.85;32.88;;;;;;;;;;5145634;27;20341;-71
2022/03/09 04:36:01;;;;;;;63.63;33.40;;;;;;;;;;5129364;27;20029;-72
2022/03/09 04:38:26;;;;;;;67.43;35.20;;;;;;;;;;5146831;27;20023;-71
2022/03/09 04:40:51;;;;;;;66.80;34.25;;;;;;;;;;5146070;27;20027;-71
2022/03/09 04:43:17;;;;;;;118.45;57.53;;;;;;;;;;5144366;27;20115;-72
2022/03/09 04:45:42;;;;;;;212.77;108.00;;;;;;;;;;5138112;27;20019;-72
2022/03/09 04:48:07;;;;;;;157.85;78.10;;;;;;;;;;5138794;27;20027;-72
2022/03/09 04:50:33;;;;;;;138.52;72.00;;;;;;;;;;5120548;27;20026;-71
2022/03/09 04:52:58;;;;;;;141.48;76.13;;;;;;;;;;5131105;27;20041;-72
2022/03/09 04:55:24;;;;;;;93.35;48.08;;;;;;;;;;5117950;27;20069;-71
2022/03/09 04:57:49;;;;;;;82.22;43.20;;;;;;;;;;5116997;27;20019;-71
2022/03/09 05:00:15;;;;;;;401.48;189.77;;;;;;;;;;5120893;27;20031;-71
2022/03/09 05:02:40;;;;;;;430.30;198.52;;;;;;;;;;5124044;27;20020;-71
2022/03/09 05:05:06;;;;;;;268.58;126.78;;;;;;;;;;5125802;27;20072;-72
2022/03/09 05:07:31;;;;;;;163.80;81.13;;;;;;;;;;5137441;27;20122;-71
2022/03/09 05:09:57;;;;;;;122.38;62.05;;;;;;;;;;5145921;27;20563;-70
2022/03/09 05:12:22;;;;;;;140.07;73.47;;;;;;;;;;5142443;27;20081;-73
2022/03/09 05:14:48;;;;;;;103.47;53.42;;;;;;;;;;5140876;27;20432;-74
2022/03/09 05:17:13;;;;;;;97.15;51.90;;;;;;;;;;5138594;27;20018;-73
2022/03/09 05:19:38;;;;;;;93.78;48.20;;;;;;;;;;5126220;27;20034;-71
2022/03/09 05:22:04;;;;;;;124.32;65.22;;;;;;;;;;5146137;27;20057;-70
2022/03/09 05:24:29;;;;;;;158.85;76.78;;;;;;;;;;5140444;27;20428;-73
2022/03/09 05:26:55;;;;;;;165.50;83.43;;;;;;;;;;5138365;27;20149;-72
2022/03/09 05:29:20;;;;;;;161.55;81.03;;;;;;;;;;5138206;27;20027;-72
2022/03/09 05:31:45;;;;;;;145.68;71.32;;;;;;;;;;5137829;27;20325;-71
2022/03/09 05:34:12;;;;;;;146.80;73.68;;;;;;;;;;5138189;27;20777;-71
2022/03/09 05:36:37;;;;;;;149.13;74.32;;;;;;;;;;5137975;27;20027;-69
2022/03/09 05:39:03;;;;;;;141.30;75.75;;;;;;;;;;5138651;27;20027;-70
2022/03/09 05:41:28;;;;;;;119.28;61.53;;;;;;;;;;5141561;27;20336;-68
2022/03/09 05:43:53;;;;;;;134.18;69.05;;;;;;;;;;5144088;27;20034;-68
2022/03/09 05:46:19;;;;;;;690.70;356.90;;;;;;;;;;5118863;27;20019;-73
2022/03/09 05:48:44;;;;;;;292.90;120.97;;;;;;;;;;5143294;27;20314;-71
2022/03/09 05:51:10;;;;;;;180.90;86.88;;;;;;;;;;5144736;27;20433;-71
2022/03/09 05:53:35;;;;;;;114.30;62.13;;;;;;;;;;5144919;27;20041;-69
2022/03/09 05:56:01;;;;;;;88.25;48.53;;;;;;;;;;5144131;27;20031;-71
2022/03/09 05:58:26;;;;;;;152.43;76.07;;;;;;;;;;5136871;27;20023;-72
2022/03/09 06:00:51;;;;;;;722.88;349.00;;;;;;;;;;5144470;27;20356;-71
2022/03/09 06:03:17;;;;;;;440.85;194.10;;;;;;;;;;5145342;27;20018;-65
2022/03/09 06:05:42;;;;;;;195.30;88.80;;;;;;;;;;5137324;27;20031;-69
2022/03/09 06:08:07;;;;;;;85.05;42.50;;;;;;;;;;5137011;27;20152;-70
2022/03/09 06:10:33;;;;;;;69.03;36.78;;;;;;;;;;5137235;27;20353;-72
2022/03/09 06:12:58;;;;;;;57.20;33.38;;;;;;;;;;5143468;27;20110;-67
2022/03/09 06:15:24;;;;;;;59.97;33.80;;;;;;;;;;5140145;27;20034;-71
2022/03/09 06:17:50;;;;;;;68.57;39.75;;;;;;;;;;5125606;27;20441;-70
2022/03/09 06:20:16;;;;;;;73.63;43.22;;;;;;;;;;5145446;27;20058;-70
2022/03/09 06:22:41;;;;;;;96.00;51.15;;;;;;;;;;5145557;27;20025;-71
2022/03/09 06:25:07;;;;;;;159.50;84.47;;;;;;;;;;5132835;27;20118;-69
2022/03/09 06:27:44;;;;;;;106.78;57.90;;;;;;;;;;5125077;27;20041;-71
2022/03/09 06:30:10;;;;;;;72.25;39.05;;;;;;;;;;5124439;28;20437;-68
2022/03/09 06:32:36;;;;;;;63.85;37.15;;;;;;;;;;5123883;28;20035;-68
2022/03/09 06:35:01;;;;;;;58.67;34.83;;;;;;;;;;5122492;28;20441;-71
2022/03/09 06:37:27;;;;;;;63.90;34.17;;;;;;;;;;5122537;28;20433;-71
2022/03/09 06:39:52;;;;;;;106.10;59.83;;;;;;;;;;5123118;28;20015;-70
2022/03/09 06:42:18;;;;;;;99.75;59.33;;;;;;;;;;5117912;28;20030;-70
2022/03/09 06:44:43;;;;;;;63.63;35.38;;;;;;;;;;5124530;28;20016;-70
2022/03/09 06:47:08;;;;;;;60.75;34.88;;;;;;;;;;5124007;28;20019;-68
2022/03/09 06:49:34;;;;;;;68.57;39.22;;;;;;;;;;5123692;28;20030;-70
2022/03/09 06:51:59;;;;;;;64.32;37.58;;;;;;;;;;5123630;28;20467;-70
2022/03/09 06:54:24;;;;;;;131.73;73.28;;;;;;;;;;5124228;28;20425;-70
2022/03/09 06:56:52;;;;;;;81.35;44.92;;;;;;;;;;5123739;28;20023;-70
2022/03/09 06:59:17;;;;;;;65.05;38.38;;;;;;;;;;5123580;28;20019;-70
2022/03/09 07:01:42;;;;;;;65.70;40.45;;;;;;;;;;5122552;28;20018;-70
2022/03/09 07:04:08;;;;;;;53.03;31.40;;;;;;;;;;5124398;28;20035;-70
2022/03/09 07:06:33;;;;;;;49.78;29.08;;;;;;;;;;5129054;27;20022;-69
2022/03/09 07:08:58;;;;;;;51.80;29.63;;;;;;;;;;5144716;27;20034;-70
2022/03/09 07:11:24;;;;;;;57.40;32.70;;;;;;;;;;5144424;27;20669;-71
2022/03/09 07:13:49;;;;;;;64.50;34.00;;;;;;;;;;5144952;27;20108;-70
2022/03/09 07:16:14;;;;;;;50.47;30.77;;;;;;;;;;5144150;27;20023;-70
2022/03/09 07:18:40;;;;;;;75.43;48.03;;;;;;;;;;5144463;27;20152;-71
2022/03/09 07:21:05;;;;;;;63.10;40.80;;;;;;;;;;5145971;27;20025;-70
2022/03/09 07:23:30;;;;;;;68.40;42.95;;;;;;;;;;5148156;27;20347;-71
2022/03/09 07:25:56;;;;;;;101.40;49.83;;;;;;;;;;5148473;27;20123;-71
2022/03/09 07:28:21;;;;;;;67.05;40.50;;;;;;;;;;5147784;27;20310;-70
2022/03/09 07:30:47;;;;;;;97.22;49.33;;;;;;;;;;5148538;27;20131;-71
2022/03/09 07:33:12;;;;;;;84.50;46.88;;;;;;;;;;5147613;27;20031;-71
2022/03/09 07:35:38;;;;;;;102.40;52.55;;;;;;;;;;5148013;27;20023;-71
2022/03/09 07:38:04;;;;;;;91.60;42.78;;;;;;;;;;5148341;27;20049;-71
2022/03/09 07:40:29;;;;;;;66.28;40.72;;;;;;;;;;5147927;27;20476;-70
2022/03/09 07:42:55;;;;;;;61.20;37.28;;;;;;;;;;5148886;27;20019;-71
2022/03/09 07:45:20;;;;;;;49.47;30.90;;;;;;;;;;5148276;27;20033;-70
2022/03/09 07:47:45;;;;;;;92.93;44.85;;;;;;;;;;5148348;27;20018;-70
2022/03/09 07:50:11;;;;;;;127.28;40.75;;;;;;;;;;5148120;27;20023;-70
2022/03/09 07:52:37;;;;;;;85.13;42.90;;;;;;;;;;5148125;27;20543;-72
2022/03/09 07:55:03;;;;;;;58.25;30.50;;;;;;;;;;5148159;27;20117;-70
2022/03/09 07:57:28;;;;;;;59.22;35.47;;;;;;;;;;5147378;27;20114;-70
2022/03/09 07:59:53;;;;;;;43.08;26.45;;;;;;;;;;5147949;27;20058;-71
2022/03/09 08:02:19;;;;;;;50.03;29.95;;;;;;;;;;5147523;27;20042;-70
2022/03/09 08:04:44;;;;;;;47.15;28.40;;;;;;;;;;5147326;27;20069;-70
2022/03/09 08:07:09;;;;;;;57.13;35.53;;;;;;;;;;5148139;27;20026;-71
2022/03/09 08:09:35;;;;;;;46.47;28.67;;;;;;;;;;5147864;27;20087;-70
2022/03/09 08:12:00;;;;;;;47.30;29.13;;;;;;;;;;5147434;27;20019;-70
2022/03/09 08:14:25;;;;;;;44.63;29.05;;;;;;;;;;5147508;27;20030;-71
2022/03/09 08:16:51;;;;;;;46.88;28.90;;;;;;;;;;5147822;27;20018;-71
2022/03/09 08:19:16;;;;;;;106.90;61.47;;;;;;;;;;5147184;27;20032;-70
2022/03/09 08:21:42;;;;;;;46.50;27.20;;;;;;;;;;5147256;27;20088;-72
2022/03/09 08:24:08;;;;;;;142.63;74.10;;;;;;;;;;5147398;27;20497;-71
2022/03/09 08:26:33;;;;;;;50.20;30.88;;;;;;;;;;5146725;27;20456;-71
2022/03/09 08:28:58;;;;;;;86.38;50.45;;;;;;;;;;5147012;27;20153;-70
2022/03/09 08:31:24;;;;;;;46.33;26.58;;;;;;;;;;5146811;27;20019;-71
2022/03/09 08:33:49;;;;;;;117.95;62.75;;;;;;;;;;5147082;27;20052;-70
2022/03/09 08:36:15;;;;;;;70.53;38.42;;;;;;;;;;5147303;27;20018;-72
2022/03/09 08:38:40;;;;;;;46.88;27.77;;;;;;;;;;5146965;27;20053;-72
2022/03/09 08:41:06;;;;;;;79.32;44.85;;;;;;;;;;5146494;27;20019;-70
2022/03/09 08:43:31;;;;;;;51.05;30.25;;;;;;;;;;5147129;27;20333;-69
2022/03/09 08:45:56;;;;;;;45.75;28.25;;;;;;;;;;5147080;27;20026;-70
2022/03/09 08:48:26;;;;;;;37.58;25.35;;;;;;;;;;5146830;27;20018;-70
2022/03/09 08:50:51;;;;;;;59.70;41.80;;;;;;;;;;5147005;27;20091;-72
2022/03/09 08:53:17;;;;;;;39.45;26.33;;;;;;;;;;5146397;27;20449;-74
2022/03/09 08:55:42;;;;;;;36.65;23.05;;;;;;;;;;5146676;27;20026;-71
2022/03/09 08:58:07;;;;;;;33.63;22.55;;;;;;;;;;5147071;27;20030;-70
2022/03/09 09:00:33;;;;;;;34.05;20.67;;;;;;;;;;5146047;27;20026;-70
2022/03/09 09:02:58;;;;;;;31.45;22.30;;;;;;;;;;5146777;27;20106;-73
2022/03/09 09:05:23;;;;;;;33.78;22.05;;;;;;;;;;5146590;27;20030;-70
2022/03/09 09:07:49;;;;;;;39.95;27.88;;;;;;;;;;5145975;27;20098;-70
2022/03/09 09:10:14;;;;;;;40.50;26.63;;;;;;;;;;5147072;27;20027;-71
2022/03/09 09:12:40;;;;;;;57.42;34.97;;;;;;;;;;5145921;27;20185;-73
2022/03/09 09:15:05;;;;;;;48.08;32.97;;;;;;;;;;5146036;27;20030;-72
2022/03/09 09:17:30;;;;;;;37.33;25.02;;;;;;;;;;5146593;27;20027;-72
2022/03/09 09:19:56;;;;;;;43.95;29.70;;;;;;;;;;5146075;27;20022;-72
2022/03/09 09:22:21;;;;;;;63.38;37.80;;;;;;;;;;5146392;27;20021;-71
2022/03/09 09:24:46;;;;;;;38.63;25.52;;;;;;;;;;5146120;27;20033;-71
2022/03/09 09:27:12;;;;;;;68.78;42.92;;;;;;;;;;5145936;27;20070;-71
2022/03/09 09:29:37;;;;;;;50.80;31.67;;;;;;;;;;5145938;27;20337;-71
2022/03/09 09:32:03;;;;;;;60.88;35.85;;;;;;;;;;5145913;27;20023;-71
2022/03/09 09:34:28;;;;;;;60.22;37.50;;;;;;;;;;5145960;27;20018;-72
2022/03/09 09:36:54;;;;;;;41.88;28.23;;;;;;;;;;5145349;27;20037;-72
2022/03/09 09:39:20;;;;;;;51.72;34.33;;;;;;;;;;5145516;27;20577;-73
2022/03/09 09:41:47;;;;;;;70.18;40.03;;;;;;;;;;5145777;27;20416;-71
2022/03/09 09:44:13;;;;;;;37.15;22.35;;;;;;;;;;5145229;27;20034;-71
2022/03/09 09:46:39;;;;;;;39.33;27.15;;;;;;;;;;5145594;27;20637;-72
2022/03/09 09:49:12;;;;;;;50.35;26.42;;;;;;;;;;5145992;27;20030;-71
2022/03/09 09:51:37;;;;;;;44.03;25.17;;;;;;;;;;5145851;27;20014;-70
2022/03/09 09:54:03;;;;;;;46.10;27.02;;;;;;;;;;5145415;27;20092;-70
2022/03/09 09:56:29;;;;;;;50.38;28.85;;;;;;;;;;5146581;27;20445;-70
2022/03/09 09:58:55;;;;;;;59.10;34.28;;;;;;;;;;5145545;27;20049;-70
2022/03/09 10:01:20;;;;;;;69.63;38.78;;;;;;;;;;5129607;27;20018;-71
2022/03/09 10:03:46;;;;;;;48.70;27.73;;;;;;;;;;5126790;27;20392;-71
2022/03/09 10:06:11;;;;;;;66.13;40.53;;;;;;;;;;5145368;27;20361;-70
2022/03/09 10:08:38;;;;;;;61.03;36.65;;;;;;;;;;5145129;27;20061;-69
2022/03/09 10:11:04;;;;;;;52.58;29.88;;;;;;;;;;5145645;27;20029;-71
2022/03/09 10:13:35;;;;;;;50.53;32.88;;;;;;;;;;5145161;27;20054;-70
2022/03/09 10:16:18;;;;;;;54.25;29.27;;;;;;;;;;5145679;27;20049;-71
2022/03/09 10:18:48;;;;;;;50.67;27.45;;;;;;;;;;5145713;27;20014;-71
2022/03/09 10:21:21;;;;;;;39.72;22.55;;;;;;;;;;5145400;27;20031;-71
2022/03/09 10:24:01;;;;;;;54.40;29.38;;;;;;;;;;5145642;27;20030;-71
2022/03/09 10:26:27;;;;;;;56.20;31.33;;;;;;;;;;5145361;27;20014;-69
2022/03/09 10:28:57;;;;;;;53.05;28.92;;;;;;;;;;5145242;27;20015;-71
2022/03/09 10:31:39;;;;;;;47.05;27.55;;;;;;;;;;5145543;27;20019;-72
2022/03/09 10:34:08;;;;;;;59.25;32.40;;;;;;;;;;5145142;27;20083;-70
2022/03/09 10:36:34;;;;;;;61.28;35.65;;;;;;;;;;5145355;27;20058;-71
2022/03/09 10:39:16;;;;;;;43.35;26.73;;;;;;;;;;5145285;27;20129;-69
2022/03/09 10:41:41;;;;;;;73.07;40.22;;;;;;;;;;5145115;27;20388;-70
2022/03/09 10:44:07;;;;;;;52.05;28.98;;;;;;;;;;5145228;27;20037;-70
2022/03/09 10:46:40;;;;;;;42.17;25.10;;;;;;;;;;5144966;27;20014;-71
2022/03/09 10:49:06;;;;;;;50.55;27.27;;;;;;;;;;5144700;27;20344;-71
2022/03/09 10:51:36;;;;;;;74.28;40.58;;;;;;;;;;5145127;27;20027;-70
2022/03/09 10:54:06;;;;;;;51.22;29.63;;;;;;;;;;5144291;27;20037;-71
2022/03/09 10:56:32;;;;;;;48.03;28.05;;;;;;;;;;5147808;27;20030;-70
2022/03/09 10:59:07;;;;;;;56.78;30.95;;;;;;;;;;5148670;27;20448;-70
2022/03/09 11:01:32;;;;;;;56.78;32.60;;;;;;;;;;5148960;27;20138;-71
2022/03/09 11:04:08;;;;;;;43.58;23.85;;;;;;;;;;5149157;27;20458;-71
2022/03/09 11:06:35;;;;;;;42.15;24.83;;;;;;;;;;5148802;27;20011;-70
2022/03/09 11:09:01;;;;;;;37.08;21.27;;;;;;;;;;5148148;27;20396;-71
2022/03/09 11:11:26;;;;;;;45.83;24.67;;;;;;;;;;5149032;27;20148;-71
2022/03/09 11:13:52;;;;;;;57.83;31.17;;;;;;;;;;5148396;27;20043;-71
2022/03/09 11:16:18;;;;;;;49.78;28.50;;;;;;;;;;5148771;27;20030;-71
2022/03/09 11:18:43;;;;;;;50.53;27.73;;;;;;;;;;5148764;27;20026;-70
2022/03/09 11:21:09;;;;;;;59.42;34.83;;;;;;;;;;5148554;27;20038;-72
2022/03/09 11:23:38;;;;;;;53.28;31.33;;;;;;;;;;5147958;27;20142;-72
2022/03/09 11:26:21;;;;;;;33.35;19.20;;;;;;;;;;5148772;27;20055;-72
2022/03/09 11:28:46;;;;;;;33.00;19.20;;;;;;;;;;5148459;27;20027;-72
2022/03/09 11:31:13;;;;;;;39.42;23.52;;;;;;;;;;5148528;27;20026;-72
2022/03/09 11:33:45;;;;;;;29.65;17.08;;;;;;;;;;5147864;27;20302;-72
2022/03/09 11:36:29;;;;;;;35.58;20.55;;;;;;;;;;5147900;27;20027;-71
2022/03/09 11:39:04;;;;;;;24.38;14.70;;;;;;;;;;5148132;27;20027;-72
2022/03/09 11:41:32;;;;;;;31.25;19.80;;;;;;;;;;5148218;27;20091;-73
2022/03/09 11:44:16;;;;;;;25.20;16.25;;;;;;;;;;5147959;27;20015;-72
2022/03/09 11:46:56;;;;;;;24.42;16.77;;;;;;;;;;5148088;27;20023;-73
2022/03/09 11:49:22;;;;;;;27.48;16.92;;;;;;;;;;5147935;27;20109;-72
2022/03/09 11:52:04;;;;;;;32.90;18.60;;;;;;;;;;5148422;27;20394;-70
2022/03/09 11:54:40;;;;;;;23.15;14.13;;;;;;;;;;5148063;27;20031;-70
2022/03/09 11:57:07;;;;;;;22.63;14.50;;;;;;;;;;5147555;27;20073;-70
2022/03/09 11:59:32;;;;;;;26.10;16.85;;;;;;;;;;5148036;27;20349;-72
2022/03/09 12:01:58;;;;;;;29.30;18.88;;;;;;;;;;5147999;27;20023;-72
2022/03/09 12:04:53;;;;;;;22.30;15.52;;;;;;;;;;5147284;27;20022;-71
2022/03/09 12:07:27;;;;;;;21.92;14.10;;;;;;;;;;5147587;27;20045;-71
2022/03/09 12:09:57;;;;;;;39.67;22.58;;;;;;;;;;5147828;27;20029;-73
2022/03/09 12:12:22;;;;;;;;;;;;;;;;;;5147726;27;20840;-72
2022/03/09 12:15:06;;;;;;;36.23;22.43;;;;;;;;;;5147263;27;20473;-73
2022/03/09 12:17:47;;;;;;;45.72;27.52;;;;;;;;;;5147463;27;20344;-71
2022/03/09 12:20:27;;;;;;;28.98;16.67;;;;;;;;;;5147509;27;20445;-72
2022/03/09 12:22:56;;;;;;;23.85;15.02;;;;;;;;;;5147375;27;20348;-71
2022/03/09 12:25:40;;;;;;;24.38;15.88;;;;;;;;;;5146910;27;20654;-72
2022/03/09 12:28:23;;;;;;;30.45;19.60;;;;;;;;;;5147270;27;20022;-71
2022/03/09 12:30:56;;;;;;;27.25;16.27;;;;;;;;;;5147107;27;20445;-70
2022/03/09 12:33:21;;;;;;;34.10;18.48;;;;;;;;;;5147370;27;20450;-73
2022/03/09 12:35:47;;;;;;;25.48;16.00;;;;;;;;;;5146773;27;20027;-72
2022/03/09 12:38:14;;;;;;;27.40;16.65;;;;;;;;;;5147239;27;20611;-70
2022/03/09 12:40:40;;;;;;;36.13;20.23;;;;;;;;;;5147048;27;20023;-69
2022/03/09 12:43:05;;;;;;;35.42;20.13;;;;;;;;;;5146891;27;20110;-70
2022/03/09 12:45:49;;;;;;;39.95;23.70;;;;;;;;;;5146950;27;20019;-69
2022/03/09 12:48:18;;;;;;;28.00;18.25;;;;;;;;;;5146944;27;20054;-70
2022/03/09 12:50:43;;;;;;;33.63;20.27;;;;;;;;;;5146979;27;20019;-70
2022/03/09 12:53:09;;;;;;;26.73;18.52;;;;;;;;;;5146468;27;20027;-70
2022/03/09 12:55:36;;;;;;;36.47;19.90;;;;;;;;;;5146250;27;20413;-71
2022/03/09 12:58:01;;;;;;;26.95;18.15;;;;;;;;;;5146899;27;20022;-73
2022/03/09 13:00:29;;;;;;;26.92;17.20;;;;;;;;;;5146507;27;20419;-72
2022/03/09 13:02:55;;;;;;;24.38;15.82;;;;;;;;;;5146853;27;20022;-72
2022/03/09 13:05:21;;;;;;;18.85;12.85;;;;;;;;;;5147056;27;20110;-71
2022/03/09 13:07:56;;;;;;;32.20;19.10;;;;;;;;;;5146334;27;20040;-69
2022/03/09 13:10:22;;;;;;;19.15;11.10;;;;;;;;;;5146567;27;20444;-74
2022/03/09 13:12:51;;;;;;;23.05;13.70;;;;;;;;;;5132144;27;20047;-72
2022/03/09 13:15:17;;;;;;;17.48;12.77;;;;;;;;;;5126458;27;20047;-71
2022/03/09 13:17:47;;;;;;;24.63;16.80;;;;;;;;;;5125253;27;20069;-73
2022/03/09 13:20:13;;;;;;;30.92;17.60;;;;;;;;;;5125589;27;20023;-70
2022/03/09 13:22:45;;;;;;;29.38;19.23;;;;;;;;;;5125825;27;20019;-71
2022/03/09 13:25:11;;;;;;;46.78;28.80;;;;;;;;;;5125103;27;20019;-71
2022/03/09 13:27:37;;;;;;;24.80;15.38;;;;;;;;;;5125190;27;20030;-71
2022/03/09 13:30:12;;;;;;;34.25;21.83;;;;;;;;;;5126027;27;20072;-70
2022/03/09 13:32:38;;;;;;;83.15;44.60;;;;;;;;;;5125516;27;20019;-70
2022/03/09 13:35:04;;;;;;;72.05;38.78;;;;;;;;;;5125489;27;20084;-71
2022/03/09 13:37:34;;;;;;;60.38;34.30;;;;;;;;;;5125510;27;20026;-71
2022/03/09 13:40:00;;;;;;;67.60;31.50;;;;;;;;;;5125004;27;20019;-71
2022/03/09 13:42:27;;;;;;;52.20;26.80;;;;;;;;;;5124668;27;20030;-71
2022/03/09 13:45:07;;;;;;;44.05;27.70;;;;;;;;;;5125526;27;20555;-72
2022/03/09 13:47:44;;;;;;;52.95;32.28;;;;;;;;;;5124687;27;20031;-71
2022/03/09 13:50:16;;;;;;;40.00;26.65;;;;;;;;;;5121402;27;20019;-70
2022/03/09 13:52:41;;;;;;;59.33;36.45;;;;;;;;;;5117576;27;20080;-71
2022/03/09 13:55:08;;;;;;;32.30;18.90;;;;;;;;;;5116840;27;20446;-72
2022/03/09 13:57:38;;;;;;;35.95;21.33;;;;;;;;;;5123058;27;20348;-70
2022/03/09 14:00:22;;;;;;;25.65;17.40;;;;;;;;;;5123272;27;20030;-71
2022/03/09 14:02:47;;;;;;;30.92;20.45;;;;;;;;;;5124278;27;20087;-70
2022/03/09 14:05:25;;;;;;;31.55;19.38;;;;;;;;;;5124469;27;20027;-69
2022/03/09 14:07:51;;;;;;;26.38;16.50;;;;;;;;;;5140071;27;20504;-72
2022/03/09 14:10:21;;;;;;;18.23;12.63;;;;;;;;;;5145002;27;20015;-70
2022/03/09 14:12:46;;;;;;;22.48;16.92;;;;;;;;;;5144822;27;20093;-70
2022/03/09 14:15:13;;;;;;;33.28;20.77;;;;;;;;;;5145675;27;20047;-72